createdAt,value
2018-12-14T00:01:48.793Z,2.17
2018-12-14T00:07:52.124Z,2.12
2018-12-14T00:13:55.468Z,2.16
2018-12-14T00:19:58.802Z,2.09
2018-12-14T00:26:02.131Z,2.20
2018-12-14T00:32:05.463Z,2.20
2018-12-14T00:38:08.774Z,2.19
2018-12-14T00:44:12.110Z,2.19
2018-12-14T00:50:15.439Z,2.27
2018-12-14T00:56:18.842Z,2.14
2018-12-14T01:02:31.501Z,2.16
2018-12-14T01:08:34.824Z,2.15
2018-12-14T01:14:38.164Z,2.20
2018-12-14T01:20:41.478Z,2.17
2018-12-14T01:26:44.825Z,2.12
2018-12-14T01:32:48.319Z,2.14
2018-12-14T01:38:51.668Z,2.02
2018-12-14T01:44:55.012Z,2.09
2018-12-14T01:50:58.350Z,2.03
2018-12-14T01:57:01.677Z,2.19
2018-12-14T02:03:05.011Z,2.08
2018-12-14T02:09:08.324Z,2.06
2018-12-14T02:15:11.668Z,2.09
2018-12-14T02:21:15.003Z,2.19
2018-12-14T02:27:18.331Z,2.19
2018-12-14T02:33:21.693Z,2.20
2018-12-14T02:39:25.116Z,2.28
2018-12-14T02:45:28.441Z,2.33
2018-12-14T02:51:31.764Z,2.17
2018-12-14T02:57:35.079Z,2.30
2018-12-14T03:03:38.402Z,2.20
2018-12-14T03:09:41.759Z,2.25
2018-12-14T03:15:45.099Z,2.28
2018-12-14T03:21:48.530Z,2.32
2018-12-14T03:27:51.927Z,2.36
2018-12-14T03:33:55.247Z,2.21
2018-12-14T03:39:58.564Z,2.16
2018-12-14T03:46:01.908Z,2.23
2018-12-14T03:52:05.253Z,2.24
2018-12-14T03:58:08.753Z,2.24
2018-12-14T04:04:12.076Z,2.24
2018-12-14T04:10:15.422Z,2.25
2018-12-14T04:16:18.768Z,2.28
2018-12-14T04:22:22.097Z,2.31
2018-12-14T04:28:25.427Z,2.34
2018-12-14T04:34:28.746Z,2.45
2018-12-14T04:40:32.068Z,2.20
2018-12-14T04:46:35.427Z,2.07
2018-12-14T04:52:38.767Z,2.19
2018-12-14T04:58:42.095Z,2.11
2018-12-14T05:04:45.423Z,2.13
2018-12-14T05:10:48.788Z,2.11
2018-12-14T05:16:52.115Z,2.11
2018-12-14T05:22:55.454Z,2.13
2018-12-14T05:28:58.783Z,2.14
2018-12-14T05:35:02.118Z,2.08
2018-12-14T05:41:05.445Z,2.19
2018-12-14T05:47:08.765Z,2.08
2018-12-14T05:53:12.108Z,2.13
2018-12-14T05:59:15.444Z,2.09
2018-12-14T06:05:19.865Z,1.90
2018-12-14T06:11:23.212Z,1.78
2018-12-14T06:17:26.536Z,1.57
2018-12-14T06:23:29.873Z,1.46
2018-12-14T06:29:33.185Z,1.28
2018-12-14T06:35:36.506Z,1.10
2018-12-14T06:41:40.529Z,0.91
2018-12-14T06:47:43.943Z,0.82
2018-12-14T06:53:47.276Z,0.74
2018-12-14T06:59:50.610Z,0.75
2018-12-14T07:05:53.945Z,0.66
2018-12-14T07:11:57.285Z,0.54
2018-12-14T07:18:00.623Z,0.50
2018-12-14T07:24:04.123Z,0.33
2018-12-14T07:30:07.450Z,0.23
2018-12-14T07:36:10.796Z,0.45
2018-12-14T07:42:14.144Z,0.37
2018-12-14T07:48:17.474Z,0.31
2018-12-14T07:54:20.802Z,0.45
2018-12-14T08:00:24.226Z,0.58
2018-12-14T08:06:27.560Z,0.72
2018-12-14T08:12:30.898Z,1.01
2018-12-14T08:18:34.239Z,1.30
2018-12-14T08:24:37.562Z,1.46
2018-12-14T08:30:40.887Z,1.67
2018-12-14T08:36:44.234Z,1.96
2018-12-14T08:42:47.557Z,1.96
2018-12-14T08:48:50.887Z,2.04
2018-12-14T08:54:54.217Z,2.22
2018-12-14T09:00:57.535Z,2.26
2018-12-14T09:07:00.876Z,2.35
2018-12-14T09:13:04.214Z,2.57
2018-12-14T09:19:07.548Z,2.63
2018-12-14T09:25:10.876Z,2.75
2018-12-14T09:31:14.594Z,2.95
2018-12-14T09:37:17.946Z,3.01
2018-12-14T09:43:21.303Z,3.01
2018-12-14T09:49:24.628Z,3.04
2018-12-14T09:55:27.977Z,2.98
2018-12-14T10:01:31.323Z,2.96
2018-12-14T10:07:34.663Z,2.86
2018-12-14T10:13:38.078Z,2.98
2018-12-14T10:19:41.424Z,2.95
2018-12-14T10:25:44.771Z,2.95
2018-12-14T10:31:48.138Z,2.97
2018-12-14T10:37:51.477Z,3.09
2018-12-14T10:43:54.827Z,3.27
2018-12-14T10:49:58.155Z,3.42
2018-12-14T10:56:01.493Z,3.28
2018-12-14T11:02:04.823Z,3.33
2018-12-14T11:08:08.161Z,3.26
2018-12-14T11:14:14.147Z,3.08
2018-12-14T11:20:16.836Z,3.06
2018-12-14T11:26:20.442Z,3.10
2018-12-14T11:32:23.782Z,3.10
2018-12-14T11:38:27.114Z,3.07
2018-12-14T11:44:30.451Z,2.67
2018-12-14T11:50:33.784Z,2.66
2018-12-14T11:56:37.186Z,2.72
2018-12-14T12:02:43.320Z,2.61
2018-12-14T12:08:45.900Z,2.67
2018-12-14T12:14:49.563Z,2.82
2018-12-14T12:20:53.061Z,2.83
2018-12-14T12:26:56.567Z,2.70
2018-12-14T12:32:59.902Z,2.70
2018-12-14T12:39:05.014Z,2.73
2018-12-14T12:45:08.522Z,2.96
2018-12-14T12:51:11.894Z,2.87
2018-12-14T12:57:15.532Z,2.84
2018-12-14T13:03:19.686Z,2.85
2018-12-14T13:09:23.025Z,2.92
2018-12-14T13:15:26.360Z,3.08
2018-12-14T13:21:29.700Z,2.89
2018-12-14T13:27:33.061Z,2.83
2018-12-14T13:33:36.398Z,2.80
2018-12-14T13:39:39.825Z,2.71
2018-12-14T13:45:43.219Z,2.56
2018-12-14T13:51:46.670Z,2.50
2018-12-14T13:57:50.036Z,2.45
2018-12-14T14:03:53.462Z,2.50
2018-12-14T14:09:56.810Z,2.37
2018-12-14T14:16:00.173Z,2.50
2018-12-14T14:22:03.611Z,2.37
2018-12-14T14:28:06.991Z,2.09
2018-12-14T14:34:10.361Z,2.20
2018-12-14T14:40:13.720Z,2.18
2018-12-14T14:46:17.073Z,2.11
2018-12-14T14:52:20.466Z,2.05
2018-12-14T14:58:23.820Z,2.15
2018-12-14T15:04:27.159Z,2.06
2018-12-14T15:10:30.503Z,2.07
2018-12-14T15:16:33.847Z,2.11
2018-12-14T15:22:37.194Z,1.93
2018-12-14T15:28:40.539Z,1.91
2018-12-14T15:34:43.921Z,1.86
2018-12-14T15:40:47.251Z,1.94
2018-12-14T15:46:50.626Z,2.03
2018-12-14T15:52:55.010Z,1.96
2018-12-14T15:58:58.352Z,2.07
2018-12-14T16:05:01.698Z,2.12
2018-12-14T16:11:05.039Z,2.08
2018-12-14T16:17:08.813Z,2.06
2018-12-14T16:23:12.367Z,1.99
2018-12-14T16:29:15.727Z,2.03
2018-12-14T16:35:20.991Z,1.90
2018-12-14T16:41:24.338Z,1.96
2018-12-14T16:47:27.766Z,1.87
2018-12-14T16:59:52.856Z,2.16
2018-12-14T17:05:56.205Z,1.89
2018-12-14T17:11:59.549Z,1.84
2018-12-14T17:18:02.877Z,1.85
2018-12-14T17:24:06.215Z,1.75
2018-12-14T17:30:09.665Z,1.82
2018-12-14T17:36:13.007Z,1.80
2018-12-14T17:42:16.343Z,1.69
2018-12-14T17:48:19.684Z,1.84
2018-12-14T17:54:23.012Z,1.76
2018-12-14T18:00:26.355Z,1.83
2018-12-14T18:06:29.682Z,1.81
2018-12-14T18:12:33.055Z,1.89
2018-12-14T18:18:36.407Z,1.89
2018-12-14T18:24:39.777Z,1.92
2018-12-14T18:30:43.112Z,1.90
2018-12-14T18:36:46.467Z,1.78
2018-12-14T18:42:50.577Z,1.87
2018-12-14T18:48:53.917Z,1.95
2018-12-14T18:54:57.246Z,1.77
2018-12-14T19:01:00.698Z,1.77
2018-12-14T19:07:04.136Z,1.76
2018-12-14T19:13:07.452Z,1.56
2018-12-14T19:19:10.842Z,1.71
2018-12-14T19:25:14.199Z,1.58
2018-12-14T19:31:17.575Z,1.45
2018-12-14T19:37:20.916Z,1.55
2018-12-14T19:43:24.262Z,1.44
2018-12-14T19:49:27.897Z,1.47
2018-12-14T19:55:31.294Z,1.49
2018-12-14T20:01:34.655Z,1.52
2018-12-14T20:07:38.003Z,1.49
2018-12-14T20:13:41.368Z,1.66
2018-12-14T20:19:44.707Z,1.55
2018-12-14T20:25:48.149Z,1.59
2018-12-14T20:31:51.524Z,1.79
2018-12-14T20:37:55.178Z,1.71
2018-12-14T20:43:58.544Z,1.66
2018-12-14T20:50:01.898Z,1.66
2018-12-14T20:56:05.244Z,1.60
2018-12-14T21:02:08.600Z,1.63
2018-12-14T21:08:11.947Z,1.76
2018-12-14T21:14:15.681Z,1.67
2018-12-14T21:20:19.079Z,1.78
2018-12-14T21:26:22.444Z,1.68
2018-12-14T21:32:25.797Z,1.67
2018-12-14T21:38:29.127Z,1.75
2018-12-14T21:44:32.494Z,1.64
2018-12-14T21:50:35.851Z,1.69
2018-12-14T21:56:39.202Z,1.66
2018-12-14T22:02:42.556Z,1.76
2018-12-14T22:08:45.934Z,1.70
2018-12-14T22:14:49.295Z,1.72
2018-12-14T22:20:52.636Z,1.66
2018-12-14T22:26:55.973Z,1.76
2018-12-14T22:32:59.305Z,1.81
2018-12-14T22:39:02.755Z,1.70
2018-12-14T22:45:06.435Z,1.67
2018-12-14T22:51:09.771Z,1.60
2018-12-14T22:57:13.154Z,1.75
2018-12-14T23:03:16.507Z,1.74
2018-12-14T23:09:19.898Z,1.87
2018-12-14T23:15:23.232Z,1.77
2018-12-14T23:21:26.570Z,1.62
2018-12-14T23:27:29.926Z,1.54
2018-12-14T23:33:33.283Z,1.60
2018-12-14T23:39:36.675Z,1.60
2018-12-14T23:45:40.040Z,1.52
2018-12-14T23:51:43.422Z,1.52
2018-12-14T23:57:46.798Z,1.52
